sensor_id;sensor_type;location;lat;lon;timestamp;temperature;humidity
53695;DHT22;39588;51.124;7.190;2023-03-31T00:02:04;10.20;99.90
53695;DHT22;39588;51.124;7.190;2023-03-31T00:04:41;10.20;99.90
53695;DHT22;39588;51.124;7.190;2023-03-31T00:07:14;10.20;99.90
53695;DHT22;39588;51.124;7.190;2023-03-31T00:09:41;10.20;99.90
53695;DHT22;39588;51.124;7.190;2023-03-31T00:12:11;10.20;99.90
53695;DHT22;39588;51.124;7.190;2023-03-31T00:17:04;10.20;99.90
53695;DHT22;39588;51.124;7.190;2023-03-31T00:21:58;10.10;99.90
53695;DHT22;39588;51.124;7.190;2023-03-31T00:24:27;10.30;99.90
53695;DHT22;39588;51.124;7.190;2023-03-31T00:27:03;10.30;99.90
53695;DHT22;39588;51.124;7.190;2023-03-31T00:29:30;10.20;99.90
53695;DHT22;39588;51.124;7.190;2023-03-31T00:31:55;10.20;99.90
53695;DHT22;39588;51.124;7.190;2023-03-31T00:34:24;10.20;99.90
53695;DHT22;39588;51.124;7.190;2023-03-31T00:36:50;10.10;99.90
53695;DHT22;39588;51.124;7.190;2023-03-31T00:39:21;10.00;99.90
53695;DHT22;39588;51.124;7.190;2023-03-31T00:41:47;10.00;99.90
53695;DHT22;39588;51.124;7.190;2023-03-31T00:44:17;10.00;99.90
53695;DHT22;39588;51.124;7.190;2023-03-31T00:49:45;10.00;99.90
53695;DHT22;39588;51.124;7.190;2023-03-31T00:54:39;10.10;99.90
53695;DHT22;39588;51.124;7.190;2023-03-31T00:57:07;10.00;99.90
53695;DHT22;39588;51.124;7.190;2023-03-31T00:59:41;10.00;99.90
53695;DHT22;39588;51.124;7.190;2023-03-31T01:02:07;10.00;99.90
53695;DHT22;39588;51.124;7.190;2023-03-31T01:04:56;9.90;99.90
53695;DHT22;39588;51.124;7.190;2023-03-31T01:07:31;9.90;99.90
53695;DHT22;39588;51.124;7.190;2023-03-31T01:10:00;9.90;99.90
53695;DHT22;39588;51.124;7.190;2023-03-31T01:12:27;9.90;99.90
53695;DHT22;39588;51.124;7.190;2023-03-31T01:14:53;9.90;99.90
53695;DHT22;39588;51.124;7.190;2023-03-31T01:17:20;9.90;99.90
53695;DHT22;39588;51.124;7.190;2023-03-31T01:42:14;9.90;99.90
53695;DHT22;39588;51.124;7.190;2023-03-31T01:45:14;9.80;99.90
53695;DHT22;39588;51.124;7.190;2023-03-31T01:50:34;9.90;99.90
53695;DHT22;39588;51.124;7.190;2023-03-31T01:58:35;9.90;99.90
53695;DHT22;39588;51.124;7.190;2023-03-31T02:01:06;9.90;99.90
53695;DHT22;39588;51.124;7.190;2023-03-31T02:03:39;9.90;99.90
53695;DHT22;39588;51.124;7.190;2023-03-31T02:06:19;9.80;99.90
53695;DHT22;39588;51.124;7.190;2023-03-31T02:08:59;9.90;99.90
53695;DHT22;39588;51.124;7.190;2023-03-31T02:11:28;9.80;99.90
53695;DHT22;39588;51.124;7.190;2023-03-31T02:13:55;9.90;99.90
53695;DHT22;39588;51.124;7.190;2023-03-31T02:16:24;9.90;99.90
53695;DHT22;39588;51.124;7.190;2023-03-31T02:18:54;9.90;99.90
53695;DHT22;39588;51.124;7.190;2023-03-31T02:21:28;9.90;99.90
53695;DHT22;39588;51.124;7.190;2023-03-31T02:23:54;9.90;99.90
53695;DHT22;39588;51.124;7.190;2023-03-31T02:26:25;9.90;99.90
53695;DHT22;39588;51.124;7.190;2023-03-31T02:28:53;9.90;99.90
53695;DHT22;39588;51.124;7.190;2023-03-31T02:31:28;9.80;99.90
53695;DHT22;39588;51.124;7.190;2023-03-31T02:36:23;9.80;99.90
53695;DHT22;39588;51.124;7.190;2023-03-31T02:39:03;9.80;99.90
53695;DHT22;39588;51.124;7.190;2023-03-31T02:41:31;9.80;99.90
53695;DHT22;39588;51.124;7.190;2023-03-31T02:46:23;9.80;99.90
53695;DHT22;39588;51.124;7.190;2023-03-31T02:48:51;9.80;99.90
53695;DHT22;39588;51.124;7.190;2023-03-31T02:56:40;9.70;99.90
53695;DHT22;39588;51.124;7.190;2023-03-31T03:02:05;9.70;99.90
53695;DHT22;39588;51.124;7.190;2023-03-31T03:10:09;9.70;99.90
53695;DHT22;39588;51.124;7.190;2023-03-31T03:13:02;9.70;99.90
53695;DHT22;39588;51.124;7.190;2023-03-31T03:15:43;9.70;99.90
53695;DHT22;39588;51.124;7.190;2023-03-31T03:18:11;9.70;99.90
53695;DHT22;39588;51.124;7.190;2023-03-31T03:20:36;9.70;99.90
53695;DHT22;39588;51.124;7.190;2023-03-31T03:23:03;9.70;99.90
53695;DHT22;39588;51.124;7.190;2023-03-31T03:25:29;9.70;99.90
53695;DHT22;39588;51.124;7.190;2023-03-31T03:27:55;9.70;99.90
53695;DHT22;39588;51.124;7.190;2023-03-31T03:32:47;9.70;99.90
53695;DHT22;39588;51.124;7.190;2023-03-31T03:35:12;9.70;99.90
53695;DHT22;39588;51.124;7.190;2023-03-31T03:37:39;9.70;99.90
53695;DHT22;39588;51.124;7.190;2023-03-31T03:40:05;9.70;99.90
53695;DHT22;39588;51.124;7.190;2023-03-31T03:42:32;9.70;99.90
53695;DHT22;39588;51.124;7.190;2023-03-31T03:47:23;9.70;99.90
53695;DHT22;39588;51.124;7.190;2023-03-31T03:52:15;9.80;99.90
53695;DHT22;39588;51.124;7.190;2023-03-31T03:54:41;9.80;99.90
53695;DHT22;39588;51.124;7.190;2023-03-31T04:01:58;9.80;99.90
53695;DHT22;39588;51.124;7.190;2023-03-31T04:04:24;9.70;99.90
53695;DHT22;39588;51.124;7.190;2023-03-31T04:06:49;9.70;99.90
53695;DHT22;39588;51.124;7.190;2023-03-31T04:09:15;9.70;99.90
53695;DHT22;39588;51.124;7.190;2023-03-31T04:11:41;9.70;99.90
53695;DHT22;39588;51.124;7.190;2023-03-31T04:14:06;9.60;99.90
53695;DHT22;39588;51.124;7.190;2023-03-31T04:16:32;9.70;99.90
53695;DHT22;39588;51.124;7.190;2023-03-31T04:18:58;9.70;99.90
53695;DHT22;39588;51.124;7.190;2023-03-31T04:21:28;9.60;99.90
53695;DHT22;39588;51.124;7.190;2023-03-31T04:23:55;9.60;99.90
53695;DHT22;39588;51.124;7.190;2023-03-31T04:26:27;9.60;99.90
53695;DHT22;39588;51.124;7.190;2023-03-31T04:29:04;9.60;99.90
53695;DHT22;39588;51.124;7.190;2023-03-31T04:31:30;9.60;99.90
53695;DHT22;39588;51.124;7.190;2023-03-31T04:36:27;9.50;99.90
53695;DHT22;39588;51.124;7.190;2023-03-31T04:38:53;9.50;99.90
53695;DHT22;39588;51.124;7.190;2023-03-31T04:41:20;9.50;99.90
53695;DHT22;39588;51.124;7.190;2023-03-31T04:43:45;9.50;99.90
53695;DHT22;39588;51.124;7.190;2023-03-31T04:46:11;9.40;99.90
53695;DHT22;39588;51.124;7.190;2023-03-31T04:48:37;9.40;99.90
53695;DHT22;39588;51.124;7.190;2023-03-31T04:51:03;9.40;99.90
53695;DHT22;39588;51.124;7.190;2023-03-31T04:53:29;9.40;99.90
53695;DHT22;39588;51.124;7.190;2023-03-31T04:55:55;9.30;99.90
53695;DHT22;39588;51.124;7.190;2023-03-31T04:58:21;9.30;99.90
53695;DHT22;39588;51.124;7.190;2023-03-31T05:00:46;9.20;99.90
53695;DHT22;39588;51.124;7.190;2023-03-31T05:05:38;9.30;99.90
53695;DHT22;39588;51.124;7.190;2023-03-31T05:08:04;9.30;99.90
53695;DHT22;39588;51.124;7.190;2023-03-31T05:10:30;9.30;99.90
53695;DHT22;39588;51.124;7.190;2023-03-31T05:12:56;9.20;99.90
53695;DHT22;39588;51.124;7.190;2023-03-31T05:15:22;9.20;99.90
53695;DHT22;39588;51.124;7.190;2023-03-31T05:17:49;9.20;99.90
53695;DHT22;39588;51.124;7.190;2023-03-31T05:20:15;9.20;99.90
53695;DHT22;39588;51.124;7.190;2023-03-31T05:22:41;9.20;99.90
53695;DHT22;39588;51.124;7.190;2023-03-31T05:25:08;9.10;99.90
53695;DHT22;39588;51.124;7.190;2023-03-31T05:27:36;9.10;99.90
53695;DHT22;39588;51.124;7.190;2023-03-31T05:30:03;9.10;99.90
53695;DHT22;39588;51.124;7.190;2023-03-31T05:37:25;9.20;99.90
53695;DHT22;39588;51.124;7.190;2023-03-31T05:39:51;9.20;99.90
53695;DHT22;39588;51.124;7.190;2023-03-31T05:42:18;9.20;99.90
53695;DHT22;39588;51.124;7.190;2023-03-31T05:44:44;9.20;99.90
53695;DHT22;39588;51.124;7.190;2023-03-31T05:47:10;9.20;99.90
53695;DHT22;39588;51.124;7.190;2023-03-31T05:52:03;9.20;99.90
53695;DHT22;39588;51.124;7.190;2023-03-31T05:54:30;9.20;99.90
53695;DHT22;39588;51.124;7.190;2023-03-31T05:56:56;9.20;99.90
53695;DHT22;39588;51.124;7.190;2023-03-31T06:09:07;9.20;99.90
53695;DHT22;39588;51.124;7.190;2023-03-31T06:11:33;9.20;99.90
53695;DHT22;39588;51.124;7.190;2023-03-31T06:13:59;9.20;99.90
53695;DHT22;39588;51.124;7.190;2023-03-31T06:16:24;9.20;99.90
53695;DHT22;39588;51.124;7.190;2023-03-31T06:21:18;9.20;99.90
53695;DHT22;39588;51.124;7.190;2023-03-31T06:23:44;9.20;99.90
53695;DHT22;39588;51.124;7.190;2023-03-31T06:26:13;9.20;99.90
53695;DHT22;39588;51.124;7.190;2023-03-31T06:31:07;9.20;99.90
53695;DHT22;39588;51.124;7.190;2023-03-31T06:33:33;9.20;99.90
53695;DHT22;39588;51.124;7.190;2023-03-31T06:36:00;9.20;99.90
53695;DHT22;39588;51.124;7.190;2023-03-31T06:38:28;9.20;99.90
53695;DHT22;39588;51.124;7.190;2023-03-31T06:40:54;9.20;99.90
53695;DHT22;39588;51.124;7.190;2023-03-31T06:43:20;9.20;99.90
53695;DHT22;39588;51.124;7.190;2023-03-31T06:45:46;9.20;99.90
53695;DHT22;39588;51.124;7.190;2023-03-31T06:48:12;9.20;99.90
53695;DHT22;39588;51.124;7.190;2023-03-31T06:50:38;9.20;99.90
53695;DHT22;39588;51.124;7.190;2023-03-31T06:57:58;9.20;99.90
53695;DHT22;39588;51.124;7.190;2023-03-31T07:02:51;9.20;99.90
53695;DHT22;39588;51.124;7.190;2023-03-31T07:05:17;9.20;99.90
53695;DHT22;39588;51.124;7.190;2023-03-31T07:07:44;9.20;99.90
53695;DHT22;39588;51.124;7.190;2023-03-31T07:15:02;9.00;99.90
53695;DHT22;39588;51.124;7.190;2023-03-31T07:22:20;9.30;99.90
53695;DHT22;39588;51.124;7.190;2023-03-31T07:24:45;9.40;99.90
53695;DHT22;39588;51.124;7.190;2023-03-31T07:27:11;9.40;99.90
53695;DHT22;39588;51.124;7.190;2023-03-31T07:29:36;9.40;99.90
53695;DHT22;39588;51.124;7.190;2023-03-31T07:36:55;9.60;99.90
53695;DHT22;39588;51.124;7.190;2023-03-31T07:46:41;9.70;99.90
53695;DHT22;39588;51.124;7.190;2023-03-31T07:51:34;9.70;99.90
53695;DHT22;39588;51.124;7.190;2023-03-31T07:56:25;9.90;99.90
53695;DHT22;39588;51.124;7.190;2023-03-31T07:58:51;10.00;99.90
53695;DHT22;39588;51.124;7.190;2023-03-31T08:01:19;10.10;99.90
53695;DHT22;39588;51.124;7.190;2023-03-31T08:03:45;10.20;99.90
53695;DHT22;39588;51.124;7.190;2023-03-31T08:06:19;10.30;99.90
53695;DHT22;39588;51.124;7.190;2023-03-31T08:13:38;10.80;99.90
53695;DHT22;39588;51.124;7.190;2023-03-31T08:16:04;11.10;99.90
53695;DHT22;39588;51.124;7.190;2023-03-31T08:30:40;11.30;99.90
53695;DHT22;39588;51.124;7.190;2023-03-31T08:33:06;11.30;99.90
53695;DHT22;39588;51.124;7.190;2023-03-31T08:35:35;11.30;99.90
53695;DHT22;39588;51.124;7.190;2023-03-31T08:38:01;11.30;99.90
53695;DHT22;39588;51.124;7.190;2023-03-31T08:40:28;11.30;99.90
53695;DHT22;39588;51.124;7.190;2023-03-31T08:43:07;11.30;99.90
53695;DHT22;39588;51.124;7.190;2023-03-31T08:45:38;11.20;99.90
53695;DHT22;39588;51.124;7.190;2023-03-31T08:50:49;11.30;99.90
53695;DHT22;39588;51.124;7.190;2023-03-31T08:53:28;11.40;99.90
53695;DHT22;39588;51.124;7.190;2023-03-31T08:55:55;11.50;99.90
53695;DHT22;39588;51.124;7.190;2023-03-31T09:06:11;11.70;99.90
53695;DHT22;39588;51.124;7.190;2023-03-31T09:08:41;11.60;99.90
53695;DHT22;39588;51.124;7.190;2023-03-31T09:11:30;11.70;99.90
53695;DHT22;39588;51.124;7.190;2023-03-31T09:16:36;12.20;99.90
53695;DHT22;39588;51.124;7.190;2023-03-31T09:19:25;12.40;99.90
53695;DHT22;39588;51.124;7.190;2023-03-31T09:21:54;12.70;99.90
53695;DHT22;39588;51.124;7.190;2023-03-31T09:24:33;13.00;99.90
53695;DHT22;39588;51.124;7.190;2023-03-31T09:27:03;13.40;99.90
53695;DHT22;39588;51.124;7.190;2023-03-31T09:32:51;14.10;99.00
53695;DHT22;39588;51.124;7.190;2023-03-31T09:35:21;14.20;98.80
53695;DHT22;39588;51.124;7.190;2023-03-31T09:37:47;14.10;98.40
53695;DHT22;39588;51.124;7.190;2023-03-31T09:40:17;13.70;98.40
53695;DHT22;39588;51.124;7.190;2023-03-31T09:42:44;13.00;98.20
53695;DHT22;39588;51.124;7.190;2023-03-31T09:45:15;12.70;98.70
53695;DHT22;39588;51.124;7.190;2023-03-31T09:47:44;12.60;99.00
53695;DHT22;39588;51.124;7.190;2023-03-31T09:50:12;12.70;99.00
53695;DHT22;39588;51.124;7.190;2023-03-31T09:52:43;12.90;99.40
53695;DHT22;39588;51.124;7.190;2023-03-31T09:55:21;13.00;98.90
53695;DHT22;39588;51.124;7.190;2023-03-31T09:57:47;13.00;98.90
53695;DHT22;39588;51.124;7.190;2023-03-31T10:00:16;13.10;99.00
53695;DHT22;39588;51.124;7.190;2023-03-31T10:03:16;13.30;98.80
53695;DHT22;39588;51.124;7.190;2023-03-31T10:05:37;13.50;98.70
53695;DHT22;39588;51.124;7.190;2023-03-31T10:10:36;13.80;98.60
53695;DHT22;39588;51.124;7.190;2023-03-31T10:13:07;14.10;98.70
53695;DHT22;39588;51.124;7.190;2023-03-31T10:15:36;14.50;98.80
53695;DHT22;39588;51.124;7.190;2023-03-31T10:18:02;14.70;97.70
53695;DHT22;39588;51.124;7.190;2023-03-31T10:20:41;15.00;98.10
53695;DHT22;39588;51.124;7.190;2023-03-31T10:23:26;15.30;98.10
53695;DHT22;39588;51.124;7.190;2023-03-31T10:25:53;15.70;96.50
53695;DHT22;39588;51.124;7.190;2023-03-31T10:28:20;15.80;95.20
53695;DHT22;39588;51.124;7.190;2023-03-31T10:30:55;15.50;95.30
53695;DHT22;39588;51.124;7.190;2023-03-31T10:33:25;15.30;95.40
53695;DHT22;39588;51.124;7.190;2023-03-31T10:35:57;15.10;95.30
53695;DHT22;39588;51.124;7.190;2023-03-31T10:38:36;14.90;95.70
53695;DHT22;39588;51.124;7.190;2023-03-31T10:41:04;14.80;95.20
53695;DHT22;39588;51.124;7.190;2023-03-31T10:46:05;14.50;95.90
53695;DHT22;39588;51.124;7.190;2023-03-31T10:48:40;14.40;96.20
53695;DHT22;39588;51.124;7.190;2023-03-31T10:51:16;14.40;95.60
53695;DHT22;39588;51.124;7.190;2023-03-31T10:53:48;14.40;96.00
53695;DHT22;39588;51.124;7.190;2023-03-31T11:09:40;14.40;95.80
53695;DHT22;39588;51.124;7.190;2023-03-31T11:12:13;14.30;95.20
53695;DHT22;39588;51.124;7.190;2023-03-31T11:17:34;13.60;96.70
53695;DHT22;39588;51.124;7.190;2023-03-31T11:28:57;12.10;99.90
53695;DHT22;39588;51.124;7.190;2023-03-31T11:36:58;11.20;99.90
53695;DHT22;39588;51.124;7.190;2023-03-31T11:42:38;11.00;99.90
53695;DHT22;39588;51.124;7.190;2023-03-31T11:45:20;11.10;99.90
53695;DHT22;39588;51.124;7.190;2023-03-31T11:47:50;11.40;99.90
53695;DHT22;39588;51.124;7.190;2023-03-31T11:50:24;11.70;99.90
53695;DHT22;39588;51.124;7.190;2023-03-31T11:53:00;12.00;99.90
53695;DHT22;39588;51.124;7.190;2023-03-31T11:55:28;12.40;99.90
53695;DHT22;39588;51.124;7.190;2023-03-31T12:00:32;13.00;99.90
53695;DHT22;39588;51.124;7.190;2023-03-31T12:03:20;13.20;99.80
53695;DHT22;39588;51.124;7.190;2023-03-31T12:06:00;13.40;99.70
53695;DHT22;39588;51.124;7.190;2023-03-31T12:08:36;13.40;99.50
53695;DHT22;39588;51.124;7.190;2023-03-31T12:11:11;13.40;99.60
53695;DHT22;39588;51.124;7.190;2023-03-31T12:19:13;13.40;99.20
53695;DHT22;39588;51.124;7.190;2023-03-31T12:21:46;13.30;99.30
53695;DHT22;39588;51.124;7.190;2023-03-31T12:24:12;13.40;99.60
53695;DHT22;39588;51.124;7.190;2023-03-31T12:26:57;13.40;99.60
53695;DHT22;39588;51.124;7.190;2023-03-31T12:29:37;13.50;99.70
53695;DHT22;39588;51.124;7.190;2023-03-31T12:32:10;13.50;99.70
53695;DHT22;39588;51.124;7.190;2023-03-31T12:34:46;13.50;99.80
53695;DHT22;39588;51.124;7.190;2023-03-31T12:59:33;12.80;99.90
53695;DHT22;39588;51.124;7.190;2023-03-31T13:04:37;12.50;99.90
53695;DHT22;39588;51.124;7.190;2023-03-31T13:07:04;12.50;99.90
53695;DHT22;39588;51.124;7.190;2023-03-31T13:09:43;12.60;99.90
53695;DHT22;39588;51.124;7.190;2023-03-31T13:12:24;12.90;99.90
53695;DHT22;39588;51.124;7.190;2023-03-31T13:14:53;13.10;99.90
53695;DHT22;39588;51.124;7.190;2023-03-31T13:17:26;13.20;99.90
53695;DHT22;39588;51.124;7.190;2023-03-31T13:19:53;13.10;99.90
53695;DHT22;39588;51.124;7.190;2023-03-31T13:22:36;13.10;99.90
53695;DHT22;39588;51.124;7.190;2023-03-31T13:27:58;12.90;99.90
53695;DHT22;39588;51.124;7.190;2023-03-31T13:33:07;13.00;99.90
53695;DHT22;39588;51.124;7.190;2023-03-31T13:35:36;13.30;99.90
53695;DHT22;39588;51.124;7.190;2023-03-31T13:44:05;13.80;99.10
53695;DHT22;39588;51.124;7.190;2023-03-31T13:55:55;13.30;98.40
53695;DHT22;39588;51.124;7.190;2023-03-31T14:07:01;13.20;98.30
53695;DHT22;39588;51.124;7.190;2023-03-31T14:09:34;13.00;98.40
53695;DHT22;39588;51.124;7.190;2023-03-31T14:12:33;11.00;98.00
53695;DHT22;39588;51.124;7.190;2023-03-31T14:14:59;13.00;98.00
53695;DHT22;39588;51.124;7.190;2023-03-31T14:17:45;13.10;98.20
53695;DHT22;39588;51.124;7.190;2023-03-31T14:20:31;13.30;98.10
53695;DHT22;39588;51.124;7.190;2023-03-31T14:39:45;13.70;98.00
53695;DHT22;39588;51.124;7.190;2023-03-31T14:42:17;13.50;98.20
53695;DHT22;39588;51.124;7.190;2023-03-31T14:44:43;13.40;98.10
53695;DHT22;39588;51.124;7.190;2023-03-31T14:47:28;13.30;98.30
53695;DHT22;39588;51.124;7.190;2023-03-31T14:50:13;13.20;98.60
53695;DHT22;39588;51.124;7.190;2023-03-31T14:52:48;13.10;98.40
53695;DHT22;39588;51.124;7.190;2023-03-31T14:55:16;12.90;98.70
53695;DHT22;39588;51.124;7.190;2023-03-31T14:57:44;12.60;98.10
53695;DHT22;39588;51.124;7.190;2023-03-31T15:00:14;12.60;97.90
53695;DHT22;39588;51.124;7.190;2023-03-31T15:02:43;12.60;98.00
53695;DHT22;39588;51.124;7.190;2023-03-31T15:10:19;12.50;97.90
53695;DHT22;39588;51.124;7.190;2023-03-31T15:12:49;12.50;97.30
53695;DHT22;39588;51.124;7.190;2023-03-31T15:15:17;12.50;97.90
53695;DHT22;39588;51.124;7.190;2023-03-31T15:17:45;12.60;98.10
53695;DHT22;39588;51.124;7.190;2023-03-31T15:20:28;12.60;98.20
53695;DHT22;39588;51.124;7.190;2023-03-31T15:22:55;12.60;98.10
53695;DHT22;39588;51.124;7.190;2023-03-31T15:25:45;12.50;97.50
53695;DHT22;39588;51.124;7.190;2023-03-31T15:28:13;12.40;97.00
53695;DHT22;39588;51.124;7.190;2023-03-31T15:30:41;12.30;97.60
53695;DHT22;39588;51.124;7.190;2023-03-31T15:33:07;12.30;98.00
53695;DHT22;39588;51.124;7.190;2023-03-31T15:35:39;12.30;98.50
53695;DHT22;39588;51.124;7.190;2023-03-31T15:40:39;12.10;98.90
53695;DHT22;39588;51.124;7.190;2023-03-31T15:43:15;11.80;99.50
53695;DHT22;39588;51.124;7.190;2023-03-31T15:48:22;11.30;99.90
53695;DHT22;39588;51.124;7.190;2023-03-31T15:50:50;11.10;99.90
53695;DHT22;39588;51.124;7.190;2023-03-31T15:53:44;11.00;99.90
53695;DHT22;39588;51.124;7.190;2023-03-31T15:56:29;11.00;99.90
53695;DHT22;39588;51.124;7.190;2023-03-31T15:59:00;11.00;99.90
53695;DHT22;39588;51.124;7.190;2023-03-31T16:01:36;11.00;99.90
53695;DHT22;39588;51.124;7.190;2023-03-31T16:04:07;11.10;99.90
53695;DHT22;39588;51.124;7.190;2023-03-31T16:09:05;11.10;99.90
53695;DHT22;39588;51.124;7.190;2023-03-31T16:11:42;11.10;99.90
53695;DHT22;39588;51.124;7.190;2023-03-31T16:17:05;11.20;99.90
53695;DHT22;39588;51.124;7.190;2023-03-31T16:19:40;11.30;99.90
53695;DHT22;39588;51.124;7.190;2023-03-31T16:22:14;11.30;99.90
53695;DHT22;39588;51.124;7.190;2023-03-31T16:24:40;11.40;99.90
53695;DHT22;39588;51.124;7.190;2023-03-31T16:27:07;11.40;99.90
53695;DHT22;39588;51.124;7.190;2023-03-31T16:29:34;11.50;99.90
53695;DHT22;39588;51.124;7.190;2023-03-31T16:35:10;11.50;99.90
53695;DHT22;39588;51.124;7.190;2023-03-31T16:37:35;11.50;99.90
53695;DHT22;39588;51.124;7.190;2023-03-31T16:40:01;11.40;99.90
53695;DHT22;39588;51.124;7.190;2023-03-31T16:42:29;11.30;99.90
53695;DHT22;39588;51.124;7.190;2023-03-31T16:47:21;11.10;99.90
53695;DHT22;39588;51.124;7.190;2023-03-31T16:59:31;11.10;99.90
53695;DHT22;39588;51.124;7.190;2023-03-31T17:06:49;10.90;99.90
53695;DHT22;39588;51.124;7.190;2023-03-31T17:09:15;10.80;99.90
53695;DHT22;39588;51.124;7.190;2023-03-31T17:28:46;10.80;99.90
53695;DHT22;39588;51.124;7.190;2023-03-31T17:31:18;10.80;99.90
53695;DHT22;39588;51.124;7.190;2023-03-31T17:33:44;10.80;99.90
53695;DHT22;39588;51.124;7.190;2023-03-31T17:36:10;10.70;99.90
53695;DHT22;39588;51.124;7.190;2023-03-31T17:41:05;10.70;99.90
53695;DHT22;39588;51.124;7.190;2023-03-31T17:43:31;10.70;99.90
53695;DHT22;39588;51.124;7.190;2023-03-31T17:46:06;10.70;99.90
53695;DHT22;39588;51.124;7.190;2023-03-31T17:48:32;10.70;99.90
53695;DHT22;39588;51.124;7.190;2023-03-31T17:51:06;10.60;99.90
53695;DHT22;39588;51.124;7.190;2023-03-31T17:53:33;10.60;99.90
53695;DHT22;39588;51.124;7.190;2023-03-31T17:56:00;10.60;99.90
53695;DHT22;39588;51.124;7.190;2023-03-31T18:08:11;10.70;99.90
53695;DHT22;39588;51.124;7.190;2023-03-31T18:10:37;10.70;99.90
53695;DHT22;39588;51.124;7.190;2023-03-31T18:20:21;10.70;99.90
53695;DHT22;39588;51.124;7.190;2023-03-31T18:22:47;10.60;99.90
53695;DHT22;39588;51.124;7.190;2023-03-31T18:25:14;10.60;99.90
53695;DHT22;39588;51.124;7.190;2023-03-31T18:27:40;10.60;99.90
53695;DHT22;39588;51.124;7.190;2023-03-31T18:30:08;10.60;99.90
53695;DHT22;39588;51.124;7.190;2023-03-31T18:32:34;10.60;99.90
53695;DHT22;39588;51.124;7.190;2023-03-31T18:37:26;10.50;99.90
53695;DHT22;39588;51.124;7.190;2023-03-31T18:39:52;10.50;99.90
53695;DHT22;39588;51.124;7.190;2023-03-31T18:44:52;10.60;99.90
53695;DHT22;39588;51.124;7.190;2023-03-31T18:47:19;10.60;99.90
53695;DHT22;39588;51.124;7.190;2023-03-31T18:49:45;10.60;99.90
53695;DHT22;39588;51.124;7.190;2023-03-31T18:54:39;10.60;99.90
53695;DHT22;39588;51.124;7.190;2023-03-31T18:57:05;10.60;99.90
53695;DHT22;39588;51.124;7.190;2023-03-31T18:59:31;10.50;99.90
53695;DHT22;39588;51.124;7.190;2023-03-31T19:01:57;10.50;99.90
53695;DHT22;39588;51.124;7.190;2023-03-31T19:04:23;10.50;99.90
53695;DHT22;39588;51.124;7.190;2023-03-31T19:09:15;10.50;99.90
53695;DHT22;39588;51.124;7.190;2023-03-31T19:19:05;10.30;99.90
53695;DHT22;39588;51.124;7.190;2023-03-31T19:21:32;10.30;99.90
53695;DHT22;39588;51.124;7.190;2023-03-31T19:24:00;10.30;99.90
53695;DHT22;39588;51.124;7.190;2023-03-31T19:26:27;10.30;99.90
53695;DHT22;39588;51.124;7.190;2023-03-31T19:31:19;10.30;99.90
53695;DHT22;39588;51.124;7.190;2023-03-31T19:41:04;10.30;99.90
53695;DHT22;39588;51.124;7.190;2023-03-31T19:43:31;10.20;99.90
53695;DHT22;39588;51.124;7.190;2023-03-31T19:45:57;10.30;99.90
53695;DHT22;39588;51.124;7.190;2023-03-31T19:48:24;10.30;99.90
53695;DHT22;39588;51.124;7.190;2023-03-31T19:50:55;10.20;99.90
53695;DHT22;39588;51.124;7.190;2023-03-31T20:00:53;10.10;99.90
53695;DHT22;39588;51.124;7.190;2023-03-31T20:03:20;10.10;99.90
53695;DHT22;39588;51.124;7.190;2023-03-31T20:10:39;10.00;99.90
53695;DHT22;39588;51.124;7.190;2023-03-31T20:13:05;10.00;99.90
53695;DHT22;39588;51.124;7.190;2023-03-31T20:17:58;10.00;99.90
53695;DHT22;39588;51.124;7.190;2023-03-31T20:20:24;9.90;99.90
53695;DHT22;39588;51.124;7.190;2023-03-31T20:25:16;10.00;99.90
53695;DHT22;39588;51.124;7.190;2023-03-31T20:27:42;10.00;99.90
53695;DHT22;39588;51.124;7.190;2023-03-31T20:30:08;10.00;99.90
53695;DHT22;39588;51.124;7.190;2023-03-31T20:32:34;10.00;99.90
53695;DHT22;39588;51.124;7.190;2023-03-31T20:35:00;9.90;99.90
53695;DHT22;39588;51.124;7.190;2023-03-31T20:39:52;10.00;99.90
53695;DHT22;39588;51.124;7.190;2023-03-31T20:42:18;10.00;99.90
53695;DHT22;39588;51.124;7.190;2023-03-31T20:44:45;10.00;99.90
53695;DHT22;39588;51.124;7.190;2023-03-31T20:47:11;10.00;99.90
53695;DHT22;39588;51.124;7.190;2023-03-31T20:49:36;9.90;99.90
53695;DHT22;39588;51.124;7.190;2023-03-31T20:52:02;9.90;99.90
53695;DHT22;39588;51.124;7.190;2023-03-31T20:54:29;9.90;99.90
53695;DHT22;39588;51.124;7.190;2023-03-31T20:56:59;9.90;99.90
53695;DHT22;39588;51.124;7.190;2023-03-31T20:59:29;9.80;99.90
53695;DHT22;39588;51.124;7.190;2023-03-31T21:01:55;9.80;99.90
53695;DHT22;39588;51.124;7.190;2023-03-31T21:06:47;9.80;99.90
53695;DHT22;39588;51.124;7.190;2023-03-31T21:09:14;9.80;99.90
53695;DHT22;39588;51.124;7.190;2023-03-31T21:11:43;9.70;99.90
53695;DHT22;39588;51.124;7.190;2023-03-31T21:14:12;9.70;99.90
53695;DHT22;39588;51.124;7.190;2023-03-31T21:16:38;9.70;99.90
53695;DHT22;39588;51.124;7.190;2023-03-31T21:23:58;9.70;99.90
53695;DHT22;39588;51.124;7.190;2023-03-31T21:26:23;9.60;99.90
53695;DHT22;39588;51.124;7.190;2023-03-31T21:28:50;9.60;99.90
53695;DHT22;39588;51.124;7.190;2023-03-31T21:31:20;9.60;99.90
53695;DHT22;39588;51.124;7.190;2023-03-31T21:33:48;9.70;99.90
53695;DHT22;39588;51.124;7.190;2023-03-31T21:36:17;9.70;99.90
53695;DHT22;39588;51.124;7.190;2023-03-31T21:38:43;9.70;99.90
53695;DHT22;39588;51.124;7.190;2023-03-31T21:41:15;9.70;99.90
53695;DHT22;39588;51.124;7.190;2023-03-31T21:46:08;9.70;99.90
53695;DHT22;39588;51.124;7.190;2023-03-31T21:48:36;9.70;99.90
53695;DHT22;39588;51.124;7.190;2023-03-31T21:51:02;9.70;99.90
53695;DHT22;39588;51.124;7.190;2023-03-31T21:53:29;9.70;99.90
53695;DHT22;39588;51.124;7.190;2023-03-31T21:55:56;9.70;99.90
53695;DHT22;39588;51.124;7.190;2023-03-31T21:58:24;9.80;99.90
53695;DHT22;39588;51.124;7.190;2023-03-31T22:00:54;9.70;99.90
53695;DHT22;39588;51.124;7.190;2023-03-31T22:05:47;9.80;99.90
53695;DHT22;39588;51.124;7.190;2023-03-31T22:08:13;9.80;99.90
53695;DHT22;39588;51.124;7.190;2023-03-31T22:10:39;9.80;99.90
53695;DHT22;39588;51.124;7.190;2023-03-31T22:13:04;9.80;99.90
53695;DHT22;39588;51.124;7.190;2023-03-31T22:17:56;9.80;99.90
53695;DHT22;39588;51.124;7.190;2023-03-31T22:20:22;9.80;99.90
53695;DHT22;39588;51.124;7.190;2023-03-31T22:22:47;9.80;99.90
53695;DHT22;39588;51.124;7.190;2023-03-31T22:25:14;9.80;99.90
53695;DHT22;39588;51.124;7.190;2023-03-31T22:27:39;9.80;99.90
53695;DHT22;39588;51.124;7.190;2023-03-31T22:30:06;9.80;99.90
53695;DHT22;39588;51.124;7.190;2023-03-31T22:32:32;9.80;99.90
53695;DHT22;39588;51.124;7.190;2023-03-31T22:37:25;9.80;99.90
53695;DHT22;39588;51.124;7.190;2023-03-31T22:39:51;9.80;99.90
53695;DHT22;39588;51.124;7.190;2023-03-31T22:42:17;9.70;99.90
53695;DHT22;39588;51.124;7.190;2023-03-31T22:47:09;9.60;99.90
53695;DHT22;39588;51.124;7.190;2023-03-31T22:49:34;9.50;99.90
53695;DHT22;39588;51.124;7.190;2023-03-31T22:52:01;9.50;99.90
53695;DHT22;39588;51.124;7.190;2023-03-31T22:54:28;9.50;99.90